Time;durP1;ratioP1;P1;durP2;ratioP2;P2;SDS_P1;SDS_P2;PMS_P1;PMS_P2;Temp;Humidity;BMP_temperature;BMP_pressure;BME280_temperature;BME280_humidity;BME280_pressure;Samples;Min_cycle;Max_cycle;Signal;HPM_P1;HPM_P2
2022/03/14 00:00:58;;;;;;;6.00;3.33;;;;;;;;;;5106471;28;20491;-60
2022/03/14 00:03:25;;;;;;;6.10;3.25;;;;;;;;;;5110963;28;20016;-60
2022/03/14 00:05:51;;;;;;;4.40;3.13;;;;;;;;;;5111734;28;20023;-61
2022/03/14 00:08:16;;;;;;;4.70;3.42;;;;;;;;;;5108226;28;20024;-60
2022/03/14 00:10:45;;;;;;;5.10;3.60;;;;;;;;;;5112149;28;20115;-60
2022/03/14 00:13:11;;;;;;;5.63;3.60;;;;;;;;;;5113208;27;20387;-60
2022/03/14 00:15:40;;;;;;;4.90;3.20;;;;;;;;;;5114934;27;20395;-60
2022/03/14 00:18:07;;;;;;;4.95;3.38;;;;;;;;;;5113666;28;20023;-60
2022/03/14 00:20:32;;;;;;;5.78;3.90;;;;;;;;;;5113086;27;20372;-60
2022/03/14 00:22:59;;;;;;;5.43;3.77;;;;;;;;;;5106250;27;20028;-60
2022/03/14 00:25:24;;;;;;;5.57;3.30;;;;;;;;;;5103327;28;20020;-60
2022/03/14 00:27:49;;;;;;;4.93;3.70;;;;;;;;;;5109391;28;20015;-60
2022/03/14 00:30:14;;;;;;;5.60;4.00;;;;;;;;;;5107669;27;20058;-60
2022/03/14 00:32:40;;;;;;;5.10;3.90;;;;;;;;;;5113884;27;20376;-60
2022/03/14 00:35:07;;;;;;;5.23;3.63;;;;;;;;;;5103216;27;20031;-60
2022/03/14 00:37:33;;;;;;;4.65;3.63;;;;;;;;;;5114920;28;20487;-60
2022/03/14 00:39:58;;;;;;;6.30;3.60;;;;;;;;;;5112699;28;20438;-61
2022/03/14 00:42:25;;;;;;;4.90;3.87;;;;;;;;;;5112774;27;20035;-60
2022/03/14 00:44:50;;;;;;;6.30;3.60;;;;;;;;;;5112234;28;20028;-60
2022/03/14 00:47:16;;;;;;;5.97;3.17;;;;;;;;;;5114381;28;20279;-60
2022/03/14 00:49:42;;;;;;;6.97;3.47;;;;;;;;;;5109572;28;20453;-60
2022/03/14 00:52:07;;;;;;;5.63;3.00;;;;;;;;;;5097443;28;20285;-60
2022/03/14 00:54:32;;;;;;;4.83;3.57;;;;;;;;;;5103751;28;20518;-60
2022/03/14 00:56:57;;;;;;;6.37;3.87;;;;;;;;;;5107303;28;20100;-59
2022/03/14 00:59:24;;;;;;;5.53;4.00;;;;;;;;;;5096315;28;20020;-60
2022/03/14 01:01:49;;;;;;;5.00;3.30;;;;;;;;;;5112495;27;20079;-60
2022/03/14 01:04:14;;;;;;;6.63;3.47;;;;;;;;;;5110037;28;20039;-60
2022/03/14 01:06:40;;;;;;;5.90;3.77;;;;;;;;;;5108583;27;20115;-59
2022/03/14 01:09:07;;;;;;;3.97;3.37;;;;;;;;;;5100769;28;20020;-59
2022/03/14 01:11:32;;;;;;;6.67;3.43;;;;;;;;;;5104680;27;20045;-59
2022/03/14 01:13:57;;;;;;;5.93;3.37;;;;;;;;;;5110329;28;20016;-58
2022/03/14 01:16:23;;;;;;;6.63;3.40;;;;;;;;;;5114778;28;20066;-60
2022/03/14 01:18:48;;;;;;;6.03;4.17;;;;;;;;;;5107606;27;20027;-60
2022/03/14 01:21:13;;;;;;;4.60;3.20;;;;;;;;;;5113128;28;20020;-60
2022/03/14 01:23:38;;;;;;;7.90;3.00;;;;;;;;;;5094704;28;20115;-60
2022/03/14 01:26:04;;;;;;;4.83;3.73;;;;;;;;;;5107687;28;20032;-59
2022/03/14 01:28:29;;;;;;;5.57;3.57;;;;;;;;;;5112912;28;20042;-59
2022/03/14 01:30:54;;;;;;;4.27;3.33;;;;;;;;;;5113064;27;20383;-59
2022/03/14 01:33:19;;;;;;;5.03;3.40;;;;;;;;;;5113833;28;20028;-59
2022/03/14 01:35:45;;;;;;;5.40;4.13;;;;;;;;;;5105421;27;20020;-59
2022/03/14 01:38:11;;;;;;;6.40;3.53;;;;;;;;;;5094190;28;20032;-60
2022/03/14 01:40:36;;;;;;;6.97;4.03;;;;;;;;;;5107409;27;20029;-60
2022/03/14 01:43:01;;;;;;;4.77;3.13;;;;;;;;;;5105078;28;20096;-61
2022/03/14 01:45:27;;;;;;;4.63;3.10;;;;;;;;;;5111791;28;20031;-60
2022/03/14 01:47:52;;;;;;;5.40;3.57;;;;;;;;;;5103093;28;20018;-60
2022/03/14 01:50:18;;;;;;;5.03;3.40;;;;;;;;;;5093806;28;20032;-60
2022/03/14 01:52:44;;;;;;;5.63;3.67;;;;;;;;;;5094203;28;20020;-60
2022/03/14 01:55:10;;;;;;;5.40;3.97;;;;;;;;;;5098541;28;20099;-60
2022/03/14 01:57:35;;;;;;;5.20;3.57;;;;;;;;;;5109977;27;20050;-60
2022/03/14 02:00:00;;;;;;;5.70;3.73;;;;;;;;;;5109001;27;20059;-60
2022/03/14 02:02:26;;;;;;;5.37;3.93;;;;;;;;;;5111485;28;20055;-60
2022/03/14 02:04:52;;;;;;;6.20;3.70;;;;;;;;;;5109199;27;20115;-59
2022/03/14 02:07:17;;;;;;;6.57;3.80;;;;;;;;;;5113074;27;20403;-60
2022/03/14 02:09:42;;;;;;;5.40;3.53;;;;;;;;;;5111512;27;20052;-59
2022/03/14 02:12:08;;;;;;;9.40;4.00;;;;;;;;;;5110560;28;20020;-59
2022/03/14 02:14:39;;;;;;;5.97;3.33;;;;;;;;;;5126754;27;20019;-60
2022/03/14 02:17:15;;;;;;;5.63;3.70;;;;;;;;;;5113198;27;20016;-59
2022/03/14 02:19:41;;;;;;;5.70;3.70;;;;;;;;;;5111312;28;20030;-60
2022/03/14 02:22:08;;;;;;;5.97;3.93;;;;;;;;;;5096994;28;20186;-59
2022/03/14 02:24:34;;;;;;;6.00;3.87;;;;;;;;;;5105440;28;20038;-59
2022/03/14 02:26:59;;;;;;;4.50;3.57;;;;;;;;;;5105076;28;20019;-59
2022/03/14 02:29:24;;;;;;;8.77;4.10;;;;;;;;;;5110962;27;20012;-60
2022/03/14 02:31:50;;;;;;;6.50;3.77;;;;;;;;;;5110843;27;20093;-60
2022/03/14 02:34:16;;;;;;;5.20;3.80;;;;;;;;;;5111580;28;20423;-60
2022/03/14 02:36:41;;;;;;;6.03;4.20;;;;;;;;;;5114990;27;20023;-60
2022/03/14 02:39:07;;;;;;;6.00;3.53;;;;;;;;;;5108080;27;20103;-61
2022/03/14 02:41:32;;;;;;;7.63;4.20;;;;;;;;;;5110763;28;20537;-60
2022/03/14 02:43:57;;;;;;;6.70;3.47;;;;;;;;;;5101289;27;20106;-60
2022/03/14 02:46:23;;;;;;;6.73;4.20;;;;;;;;;;5103020;28;20110;-60
2022/03/14 02:48:48;;;;;;;5.83;4.13;;;;;;;;;;5102648;28;20019;-61
2022/03/14 02:51:13;;;;;;;6.70;3.63;;;;;;;;;;5102798;27;20015;-61
2022/03/14 02:53:39;;;;;;;6.43;3.83;;;;;;;;;;5095486;28;20156;-61
2022/03/14 02:56:04;;;;;;;5.23;4.00;;;;;;;;;;5101544;27;20040;-60
2022/03/14 02:58:32;;;;;;;7.43;4.03;;;;;;;;;;5104425;28;20027;-61
2022/03/14 03:00:57;;;;;;;6.00;4.00;;;;;;;;;;5102734;28;20111;-61
2022/03/14 03:03:22;;;;;;;6.17;4.20;;;;;;;;;;5108274;27;20454;-61
2022/03/14 03:05:48;;;;;;;5.50;3.80;;;;;;;;;;5109787;28;20035;-60
2022/03/14 03:08:14;;;;;;;7.90;4.10;;;;;;;;;;5110945;28;20024;-60
2022/03/14 03:10:40;;;;;;;6.10;4.03;;;;;;;;;;5110799;28;20500;-61
2022/03/14 03:13:05;;;;;;;5.60;3.60;;;;;;;;;;5109061;28;20030;-60
2022/03/14 03:15:30;;;;;;;5.87;4.30;;;;;;;;;;5111822;28;20431;-60
2022/03/14 03:17:56;;;;;;;5.47;3.90;;;;;;;;;;5112110;28;20080;-60
2022/03/14 03:20:22;;;;;;;4.77;3.60;;;;;;;;;;5109670;28;20019;-60
2022/03/14 03:22:47;;;;;;;5.73;4.10;;;;;;;;;;5104219;28;20024;-60
2022/03/14 03:25:13;;;;;;;5.50;4.20;;;;;;;;;;5103236;28;20016;-60
2022/03/14 03:27:38;;;;;;;5.73;3.83;;;;;;;;;;5108748;28;20012;-60
2022/03/14 03:30:04;;;;;;;7.60;4.33;;;;;;;;;;5104383;28;20027;-60
2022/03/14 03:32:29;;;;;;;5.87;3.87;;;;;;;;;;5110524;28;20098;-60
2022/03/14 03:34:54;;;;;;;5.40;3.50;;;;;;;;;;5109113;28;20201;-60
2022/03/14 03:37:20;;;;;;;4.77;3.77;;;;;;;;;;5112304;28;20032;-60
2022/03/14 03:39:45;;;;;;;4.90;3.77;;;;;;;;;;5110768;28;20031;-60
2022/03/14 03:42:10;;;;;;;5.77;4.30;;;;;;;;;;5110098;28;20019;-60
2022/03/14 03:44:36;;;;;;;6.17;3.67;;;;;;;;;;5101751;28;20370;-60
2022/03/14 03:47:01;;;;;;;6.17;4.00;;;;;;;;;;5102365;28;20028;-60
2022/03/14 03:49:27;;;;;;;6.30;4.50;;;;;;;;;;5110273;28;20329;-60
2022/03/14 03:51:52;;;;;;;5.90;4.30;;;;;;;;;;5113092;27;20020;-60
2022/03/14 03:54:18;;;;;;;4.80;3.83;;;;;;;;;;5110399;28;20043;-61
2022/03/14 03:56:43;;;;;;;7.13;4.30;;;;;;;;;;5110047;28;20381;-60
2022/03/14 03:59:08;;;;;;;6.37;3.70;;;;;;;;;;5106716;28;20016;-60
2022/03/14 04:01:33;;;;;;;5.80;4.17;;;;;;;;;;5115265;27;20031;-60
2022/03/14 04:04:00;;;;;;;6.00;4.07;;;;;;;;;;5110139;28;20020;-61
2022/03/14 04:06:27;;;;;;;5.27;3.93;;;;;;;;;;5125450;27;20061;-60
2022/03/14 04:08:52;;;;;;;5.93;3.80;;;;;;;;;;5121222;27;20030;-60
2022/03/14 04:11:18;;;;;;;6.57;4.37;;;;;;;;;;5115671;27;20027;-61
2022/03/14 04:13:44;;;;;;;7.47;4.13;;;;;;;;;;5107681;27;20026;-59
2022/03/14 04:16:09;;;;;;;7.27;4.37;;;;;;;;;;5110342;28;20027;-59
2022/03/14 04:18:34;;;;;;;5.77;3.63;;;;;;;;;;5109340;28;20034;-60
2022/03/14 04:21:00;;;;;;;7.43;4.10;;;;;;;;;;5108255;28;20034;-60
2022/03/14 04:23:25;;;;;;;6.77;4.37;;;;;;;;;;5115126;28;20034;-60
2022/03/14 04:25:50;;;;;;;6.70;4.87;;;;;;;;;;5105377;27;20111;-60
2022/03/14 04:28:16;;;;;;;7.40;4.47;;;;;;;;;;5115516;28;20272;-60
2022/03/14 04:30:42;;;;;;;5.40;3.97;;;;;;;;;;5112399;28;20076;-60
2022/03/14 04:33:08;;;;;;;5.70;4.17;;;;;;;;;;5115301;28;20020;-60
2022/03/14 04:35:35;;;;;;;5.00;4.10;;;;;;;;;;5108842;28;20019;-60
2022/03/14 04:38:00;;;;;;;5.53;4.27;;;;;;;;;;5114162;28;20032;-60
2022/03/14 04:40:26;;;;;;;7.57;4.17;;;;;;;;;;5113484;27;20100;-60
2022/03/14 04:42:51;;;;;;;6.03;3.83;;;;;;;;;;5107430;27;20092;-60
2022/03/14 04:45:16;;;;;;;7.13;4.33;;;;;;;;;;5110715;28;20038;-60
2022/03/14 04:47:41;;;;;;;5.90;3.90;;;;;;;;;;5097373;27;20020;-60
2022/03/14 04:50:07;;;;;;;5.83;3.90;;;;;;;;;;5113884;27;20019;-61
2022/03/14 04:52:32;;;;;;;7.57;4.13;;;;;;;;;;5110342;28;20054;-62
2022/03/14 04:54:57;;;;;;;7.10;3.97;;;;;;;;;;5099107;28;20089;-61
2022/03/14 04:57:23;;;;;;;6.97;4.40;;;;;;;;;;5108859;27;20079;-61
2022/03/14 04:59:48;;;;;;;6.83;4.30;;;;;;;;;;5107404;28;20072;-61
2022/03/14 05:02:13;;;;;;;7.43;3.53;;;;;;;;;;5098922;28;20058;-61
2022/03/14 05:04:39;;;;;;;6.17;4.37;;;;;;;;;;5105637;27;20039;-61
2022/03/14 05:07:06;;;;;;;6.53;4.40;;;;;;;;;;5106198;27;20073;-60
2022/03/14 05:09:31;;;;;;;6.30;3.90;;;;;;;;;;5102709;28;20103;-60
2022/03/14 05:11:56;;;;;;;5.87;3.97;;;;;;;;;;5112865;28;20098;-60
2022/03/14 05:14:21;;;;;;;6.63;4.40;;;;;;;;;;5111701;27;20144;-60
2022/03/14 05:16:48;;;;;;;9.20;4.60;;;;;;;;;;5104397;28;20068;-61
2022/03/14 05:19:13;;;;;;;6.03;4.57;;;;;;;;;;5105043;28;20058;-60
2022/03/14 05:21:38;;;;;;;6.93;4.50;;;;;;;;;;5114979;28;20080;-60
2022/03/14 05:24:05;;;;;;;6.53;4.67;;;;;;;;;;5106507;28;20024;-60
2022/03/14 05:26:30;;;;;;;6.60;4.27;;;;;;;;;;5103816;28;20028;-59
2022/03/14 05:28:56;;;;;;;7.37;4.43;;;;;;;;;;5112976;28;20605;-61
2022/03/14 05:31:21;;;;;;;7.97;5.17;;;;;;;;;;5114134;28;20488;-60
2022/03/14 05:33:46;;;;;;;5.43;4.03;;;;;;;;;;5113562;28;20088;-60
2022/03/14 05:36:11;;;;;;;6.40;4.53;;;;;;;;;;5092475;28;20032;-60
2022/03/14 05:38:37;;;;;;;6.37;4.70;;;;;;;;;;5094258;28;20039;-61
2022/03/14 05:41:02;;;;;;;6.43;4.60;;;;;;;;;;5096605;28;20054;-60
2022/03/14 05:43:27;;;;;;;6.83;4.20;;;;;;;;;;5103223;28;20524;-61
2022/03/14 05:45:52;;;;;;;6.47;4.40;;;;;;;;;;5111695;28;20397;-60
2022/03/14 05:48:18;;;;;;;8.73;4.27;;;;;;;;;;5113739;28;20030;-60
2022/03/14 05:50:43;;;;;;;10.10;4.70;;;;;;;;;;5113850;28;20433;-59
2022/03/14 05:53:10;;;;;;;6.47;4.07;;;;;;;;;;5096709;28;20431;-60
2022/03/14 05:55:35;;;;;;;6.63;4.53;;;;;;;;;;5103663;28;20081;-60
2022/03/14 05:58:01;;;;;;;7.83;5.10;;;;;;;;;;5099203;28;20426;-60
2022/03/14 06:00:26;;;;;;;6.80;5.07;;;;;;;;;;5104228;28;20115;-60
2022/03/14 06:02:54;;;;;;;6.13;4.03;;;;;;;;;;5108917;28;20541;-60
2022/03/14 06:05:21;;;;;;;10.17;4.63;;;;;;;;;;5111311;28;20380;-60
2022/03/14 06:07:46;;;;;;;6.57;4.57;;;;;;;;;;5111904;28;20023;-61
2022/03/14 06:10:15;;;;;;;6.67;4.23;;;;;;;;;;5107497;28;20396;-60
2022/03/14 06:12:40;;;;;;;6.67;4.13;;;;;;;;;;5104464;28;20116;-60
2022/03/14 06:15:09;;;;;;;6.63;4.53;;;;;;;;;;5098033;28;20062;-60
2022/03/14 06:17:34;;;;;;;6.57;4.03;;;;;;;;;;5104148;28;20310;-60
2022/03/14 06:19:59;;;;;;;6.33;4.40;;;;;;;;;;5111555;28;20049;-63
2022/03/14 06:22:24;;;;;;;9.27;4.83;;;;;;;;;;5101904;28;20375;-60
2022/03/14 06:24:50;;;;;;;7.90;4.87;;;;;;;;;;5109642;28;20165;-60
2022/03/14 06:27:16;;;;;;;6.53;4.60;;;;;;;;;;5104090;28;20073;-60
2022/03/14 06:29:42;;;;;;;6.37;4.87;;;;;;;;;;5103178;28;20459;-60
2022/03/14 06:32:07;;;;;;;5.30;4.03;;;;;;;;;;5113035;28;20023;-60
2022/03/14 06:34:33;;;;;;;7.20;4.40;;;;;;;;;;5106801;28;20031;-60
2022/03/14 06:36:58;;;;;;;6.97;4.40;;;;;;;;;;5099095;28;20337;-61
2022/03/14 06:39:24;;;;;;;6.43;4.77;;;;;;;;;;5098319;28;20390;-60
2022/03/14 06:41:50;;;;;;;6.07;4.60;;;;;;;;;;5096717;28;20035;-61
2022/03/14 06:44:17;;;;;;;7.50;4.73;;;;;;;;;;5111864;28;20024;-60
2022/03/14 06:46:42;;;;;;;7.83;4.77;;;;;;;;;;5110441;28;20031;-62
2022/03/14 06:49:07;;;;;;;7.23;4.87;;;;;;;;;;5106290;28;20027;-60
2022/03/14 06:51:33;;;;;;;8.00;5.17;;;;;;;;;;5102758;28;20404;-61
2022/03/14 06:53:58;;;;;;;9.60;4.50;;;;;;;;;;5097583;28;20048;-60
2022/03/14 06:56:23;;;;;;;10.13;4.97;;;;;;;;;;5106556;28;20046;-60
2022/03/14 06:58:49;;;;;;;9.00;5.17;;;;;;;;;;5109719;28;20020;-60
2022/03/14 07:01:14;;;;;;;6.60;5.00;;;;;;;;;;5109158;28;20024;-60
2022/03/14 07:03:39;;;;;;;6.83;4.80;;;;;;;;;;5106759;28;20019;-60
2022/03/14 07:06:04;;;;;;;6.90;5.47;;;;;;;;;;5092616;28;20020;-60
2022/03/14 07:08:30;;;;;;;7.33;4.87;;;;;;;;;;5101389;28;20487;-60
2022/03/14 07:10:55;;;;;;;9.27;5.60;;;;;;;;;;5112552;28;20376;-60
2022/03/14 07:13:20;;;;;;;6.60;5.33;;;;;;;;;;5098271;28;20055;-59
2022/03/14 07:15:45;;;;;;;8.87;5.13;;;;;;;;;;5108046;28;20023;-60
2022/03/14 07:18:11;;;;;;;6.20;5.07;;;;;;;;;;5102693;28;20058;-61
2022/03/14 07:20:36;;;;;;;7.70;4.90;;;;;;;;;;5106744;28;20430;-60
2022/03/14 07:23:02;;;;;;;6.57;4.70;;;;;;;;;;5111887;28;20118;-60
2022/03/14 07:25:29;;;;;;;8.53;4.50;;;;;;;;;;5108703;28;20016;-60
2022/03/14 07:27:55;;;;;;;8.90;4.50;;;;;;;;;;5105060;28;20024;-60
2022/03/14 07:30:21;;;;;;;7.80;4.60;;;;;;;;;;5106553;28;20028;-60
2022/03/14 07:32:46;;;;;;;6.87;4.80;;;;;;;;;;5099883;28;20154;-60
2022/03/14 07:35:12;;;;;;;8.20;4.70;;;;;;;;;;5102629;28;20507;-60
2022/03/14 07:37:37;;;;;;;7.90;4.77;;;;;;;;;;5092000;28;20020;-60
2022/03/14 07:40:02;;;;;;;10.37;5.03;;;;;;;;;;5093411;28;20051;-60
2022/03/14 07:42:27;;;;;;;6.40;4.25;;;;;;;;;;5101105;28;20039;-60
2022/03/14 07:44:53;;;;;;;8.40;4.88;;;;;;;;;;5095678;28;20036;-60
2022/03/14 07:47:18;;;;;;;9.00;4.93;;;;;;;;;;5100782;28;20502;-61
2022/03/14 07:49:43;;;;;;;9.30;4.80;;;;;;;;;;5103546;28;20479;-61
2022/03/14 07:52:08;;;;;;;6.10;4.95;;;;;;;;;;5092700;28;20103;-60
2022/03/14 07:54:34;;;;;;;6.35;5.15;;;;;;;;;;5097611;28;20464;-60
2022/03/14 07:56:59;;;;;;;7.53;4.90;;;;;;;;;;5110011;28;20132;-60
2022/03/14 07:59:24;;;;;;;7.88;4.63;;;;;;;;;;5105936;28;20028;-61
2022/03/14 08:01:49;;;;;;;7.95;5.35;;;;;;;;;;5108740;28;20031;-60
2022/03/14 08:04:14;;;;;;;6.82;4.65;;;;;;;;;;5106575;28;20064;-61
2022/03/14 08:06:42;;;;;;;6.82;5.10;;;;;;;;;;5098019;28;20016;-61
2022/03/14 08:09:08;;;;;;;5.78;4.43;;;;;;;;;;5110596;28;20133;-61
2022/03/14 08:11:35;;;;;;;6.22;4.95;;;;;;;;;;5103098;28;20092;-61
2022/03/14 08:14:01;;;;;;;6.25;4.78;;;;;;;;;;5111325;28;20032;-60
2022/03/14 08:16:26;;;;;;;5.55;4.63;;;;;;;;;;5110147;28;20023;-60
2022/03/14 08:18:51;;;;;;;6.93;5.10;;;;;;;;;;5100929;28;20088;-60
2022/03/14 08:21:17;;;;;;;7.32;4.90;;;;;;;;;;5096681;28;20048;-61
2022/03/14 08:23:42;;;;;;;7.70;4.97;;;;;;;;;;5102976;28;20387;-61
2022/03/14 08:26:07;;;;;;;6.32;4.70;;;;;;;;;;5104809;28;20639;-61
2022/03/14 08:28:34;;;;;;;7.10;4.90;;;;;;;;;;5101683;28;20496;-61
2022/03/14 08:31:00;;;;;;;6.55;4.53;;;;;;;;;;5109152;28;20471;-60
2022/03/14 08:33:27;;;;;;;6.53;5.05;;;;;;;;;;5108517;28;20020;-61
2022/03/14 08:35:54;;;;;;;7.18;4.75;;;;;;;;;;5095440;28;20115;-60
2022/03/14 08:38:19;;;;;;;6.72;4.80;;;;;;;;;;5095220;28;20024;-60
2022/03/14 08:40:44;;;;;;;7.15;4.93;;;;;;;;;;5101559;28;20043;-61
2022/03/14 08:43:10;;;;;;;6.45;4.85;;;;;;;;;;5112275;28;20023;-60
2022/03/14 08:45:35;;;;;;;7.35;4.70;;;;;;;;;;5114933;28;20483;-62
2022/03/14 08:48:00;;;;;;;7.32;4.90;;;;;;;;;;5111495;28;20514;-62
2022/03/14 08:50:26;;;;;;;6.80;4.95;;;;;;;;;;5104476;28;20023;-61
2022/03/14 08:52:52;;;;;;;9.75;4.72;;;;;;;;;;5113457;28;20023;-67
2022/03/14 08:55:17;;;;;;;6.63;4.65;;;;;;;;;;5106218;28;20080;-68
2022/03/14 08:57:43;;;;;;;9.13;4.78;;;;;;;;;;5092408;28;20056;-67
2022/03/14 09:00:09;;;;;;;7.28;4.78;;;;;;;;;;5106707;28;20120;-66
2022/03/14 09:02:34;;;;;;;9.43;4.50;;;;;;;;;;5113775;28;20467;-69
2022/03/14 09:04:59;;;;;;;8.35;5.30;;;;;;;;;;5111305;28;20020;-67
2022/03/14 09:07:28;;;;;;;6.90;4.43;;;;;;;;;;5113025;28;20391;-68
2022/03/14 09:09:54;;;;;;;7.78;5.10;;;;;;;;;;5103142;28;20015;-70
2022/03/14 09:12:20;;;;;;;7.45;5.25;;;;;;;;;;5110543;28;20022;-66
2022/03/14 09:14:46;;;;;;;7.47;4.95;;;;;;;;;;5113349;28;20019;-62
2022/03/14 09:17:12;;;;;;;9.32;4.97;;;;;;;;;;5112597;28;20024;-71
2022/03/14 09:19:37;;;;;;;6.45;4.88;;;;;;;;;;5112811;28;20024;-66
2022/03/14 09:22:03;;;;;;;9.82;6.30;;;;;;;;;;5105460;28;20028;-69
2022/03/14 09:24:28;;;;;;;8.32;5.93;;;;;;;;;;5091123;28;20023;-66
2022/03/14 09:26:55;;;;;;;7.50;5.60;;;;;;;;;;5099313;28;20038;-67
2022/03/14 09:29:21;;;;;;;5.95;5.00;;;;;;;;;;5097046;28;20028;-60
2022/03/14 09:31:46;;;;;;;9.70;4.82;;;;;;;;;;5097186;28;20015;-64
2022/03/14 09:34:11;;;;;;;8.32;5.22;;;;;;;;;;5107492;28;20479;-64
2022/03/14 09:36:36;;;;;;;6.55;5.35;;;;;;;;;;5105140;28;20020;-64
2022/03/14 09:39:01;;;;;;;6.82;6.13;;;;;;;;;;5101281;28;20041;-63
2022/03/14 09:41:28;;;;;;;12.48;6.50;;;;;;;;;;5112065;28;20015;-64
2022/03/14 09:43:55;;;;;;;6.28;5.47;;;;;;;;;;5113376;27;20051;-64
2022/03/14 09:46:21;;;;;;;6.20;4.65;;;;;;;;;;5113058;28;20015;-64
2022/03/14 09:48:49;;;;;;;6.88;5.47;;;;;;;;;;5112765;28;20106;-64
2022/03/14 09:51:16;;;;;;;9.20;5.70;;;;;;;;;;5113682;28;20053;-64
2022/03/14 09:53:41;;;;;;;6.95;5.28;;;;;;;;;;5112456;28;20027;-63
2022/03/14 09:56:06;;;;;;;8.57;5.05;;;;;;;;;;5108791;28;20056;-63
2022/03/14 09:58:31;;;;;;;6.72;5.22;;;;;;;;;;5111925;28;20020;-64
2022/03/14 10:00:59;;;;;;;8.35;5.43;;;;;;;;;;5111217;28;20496;-64
2022/03/14 10:03:24;;;;;;;8.98;5.32;;;;;;;;;;5113403;28;20020;-64
2022/03/14 10:05:49;;;;;;;9.38;5.32;;;;;;;;;;5109880;28;20047;-63
2022/03/14 10:08:15;;;;;;;7.47;4.28;;;;;;;;;;5093695;28;20028;-64
2022/03/14 10:10:42;;;;;;;7.13;5.45;;;;;;;;;;5104673;28;20496;-63
2022/03/14 10:13:10;;;;;;;9.15;5.75;;;;;;;;;;5112881;28;20035;-64
2022/03/14 10:15:40;;;;;;;7.07;5.32;;;;;;;;;;5111525;28;20103;-64
2022/03/14 10:18:13;;;;;;;6.35;5.40;;;;;;;;;;5098203;28;20050;-64
2022/03/14 10:20:53;;;;;;;8.82;5.72;;;;;;;;;;5110103;28;20537;-64
2022/03/14 10:23:29;;;;;;;7.65;5.50;;;;;;;;;;5105797;28;20030;-64
2022/03/14 10:25:56;;;;;;;8.13;5.88;;;;;;;;;;5107295;28;20031;-64
2022/03/14 10:28:21;;;;;;;9.98;6.68;;;;;;;;;;5096946;28;20468;-64
2022/03/14 10:30:48;;;;;;;11.05;6.35;;;;;;;;;;5109166;28;20033;-64
2022/03/14 10:33:14;;;;;;;8.68;6.65;;;;;;;;;;5112943;27;20020;-62
2022/03/14 10:35:41;;;;;;;8.48;6.15;;;;;;;;;;5113439;28;20436;-64
2022/03/14 10:38:07;;;;;;;9.27;6.07;;;;;;;;;;5104023;28;20079;-63
2022/03/14 10:40:33;;;;;;;11.60;6.60;;;;;;;;;;5111096;28;20019;-65
2022/03/14 10:42:58;;;;;;;8.23;6.05;;;;;;;;;;5099738;28;20034;-65
2022/03/14 10:45:23;;;;;;;7.43;5.78;;;;;;;;;;5092195;28;20031;-65
2022/03/14 10:47:53;;;;;;;8.23;5.55;;;;;;;;;;5093196;28;20031;-64
2022/03/14 10:50:35;;;;;;;6.72;5.47;;;;;;;;;;5111386;28;20028;-64
2022/03/14 10:53:10;;;;;;;8.55;6.25;;;;;;;;;;5113058;28;20039;-64
2022/03/14 10:55:35;;;;;;;7.30;5.93;;;;;;;;;;5101531;28;20480;-65
2022/03/14 10:58:11;;;;;;;9.02;6.45;;;;;;;;;;5112498;28;20042;-64
2022/03/14 11:00:52;;;;;;;10.05;6.25;;;;;;;;;;5099543;28;20029;-64
2022/03/14 11:03:28;;;;;;;7.03;6.03;;;;;;;;;;5092403;28;20106;-64
2022/03/14 11:05:55;;;;;;;9.35;6.57;;;;;;;;;;5091373;28;20468;-64
2022/03/14 11:08:26;;;;;;;10.48;6.70;;;;;;;;;;5097593;28;20019;-64
2022/03/14 11:10:51;;;;;;;10.32;6.60;;;;;;;;;;5109679;28;20353;-64
2022/03/14 11:13:17;;;;;;;7.60;6.30;;;;;;;;;;5110940;27;20082;-65
2022/03/14 11:15:42;;;;;;;9.05;6.90;;;;;;;;;;5092941;28;20047;-63
2022/03/14 11:18:07;;;;;;;11.63;7.10;;;;;;;;;;5099458;28;20395;-65
2022/03/14 11:20:33;;;;;;;9.02;6.78;;;;;;;;;;5109747;28;20114;-64
2022/03/14 11:22:58;;;;;;;9.15;6.95;;;;;;;;;;5097006;28;20054;-65
2022/03/14 11:25:23;;;;;;;8.38;7.10;;;;;;;;;;5101425;28;20063;-65
2022/03/14 11:27:49;;;;;;;8.77;7.10;;;;;;;;;;5110332;28;20118;-62
2022/03/14 11:30:15;;;;;;;9.07;6.63;;;;;;;;;;5106155;28;20475;-64
2022/03/14 11:32:41;;;;;;;7.03;6.07;;;;;;;;;;5107267;28;20104;-64
2022/03/14 11:35:07;;;;;;;9.73;7.43;;;;;;;;;;5095325;28;20054;-65
2022/03/14 11:37:33;;;;;;;8.07;7.28;;;;;;;;;;5106227;28;20447;-64
2022/03/14 11:39:59;;;;;;;7.55;6.70;;;;;;;;;;5104309;28;20058;-65
2022/03/14 11:42:24;;;;;;;8.88;6.50;;;;;;;;;;5104785;28;20024;-64
2022/03/14 11:44:50;;;;;;;9.27;6.63;;;;;;;;;;5111664;28;20369;-64
2022/03/14 11:47:18;;;;;;;8.85;7.30;;;;;;;;;;5106559;28;20020;-65
2022/03/14 11:49:44;;;;;;;9.52;6.70;;;;;;;;;;5092696;28;20061;-65
2022/03/14 11:52:12;;;;;;;9.10;6.60;;;;;;;;;;5102219;28;20028;-64
2022/03/14 11:54:39;;;;;;;8.77;6.53;;;;;;;;;;5097131;28;20486;-65
2022/03/14 11:57:05;;;;;;;7.80;6.88;;;;;;;;;;5106085;28;20042;-64
2022/03/14 11:59:31;;;;;;;9.23;7.25;;;;;;;;;;5105970;28;20019;-65
2022/03/14 12:01:58;;;;;;;10.00;7.75;;;;;;;;;;5107443;28;20031;-65
2022/03/14 12:04:27;;;;;;;7.53;6.53;;;;;;;;;;5107295;28;20098;-64
2022/03/14 12:06:52;;;;;;;13.35;6.53;;;;;;;;;;5102806;28;20028;-64
2022/03/14 12:09:23;;;;;;;11.52;6.50;;;;;;;;;;5110491;28;20197;-64
2022/03/14 12:11:49;;;;;;;10.10;6.65;;;;;;;;;;5112546;27;20024;-64
2022/03/14 12:14:34;;;;;;;10.57;6.50;;;;;;;;;;5110301;28;20016;-64
2022/03/14 12:17:26;;;;;;;9.38;6.47;;;;;;;;;;5104519;27;20120;-64
2022/03/14 12:19:54;;;;;;;11.68;6.53;;;;;;;;;;5104834;27;20096;-62
2022/03/14 12:22:29;;;;;;;11.27;6.97;;;;;;;;;;5107802;27;20462;-64
2022/03/14 12:24:54;;;;;;;12.63;6.63;;;;;;;;;;5108158;27;20034;-65
2022/03/14 12:27:21;;;;;;;8.38;6.78;;;;;;;;;;5109209;27;20036;-63
2022/03/14 12:29:49;;;;;;;9.27;7.20;;;;;;;;;;5110511;27;20024;-64
2022/03/14 12:32:32;;;;;;;13.73;6.93;;;;;;;;;;5122145;27;20015;-65
2022/03/14 12:34:57;;;;;;;7.68;6.60;;;;;;;;;;5109158;27;20291;-65
2022/03/14 12:37:24;;;;;;;10.60;6.13;;;;;;;;;;5111423;27;20106;-64
2022/03/14 12:39:50;;;;;;;8.82;6.50;;;;;;;;;;5110599;27;20016;-63
2022/03/14 12:42:23;;;;;;;6.07;4.97;;;;;;;;;;5106492;27;20038;-65
2022/03/14 12:45:08;;;;;;;7.68;4.40;;;;;;;;;;5110589;27;20587;-65
2022/03/14 12:47:39;;;;;;;12.90;4.60;;;;;;;;;;5109432;27;20035;-65
2022/03/14 12:50:04;;;;;;;4.93;2.92;;;;;;;;;;5106594;27;20031;-64
2022/03/14 12:52:29;;;;;;;3.42;2.90;;;;;;;;;;5105583;27;20026;-64
2022/03/14 12:54:55;;;;;;;5.90;3.10;;;;;;;;;;5106594;27;20019;-64
2022/03/14 12:57:23;;;;;;;2.78;1.80;;;;;;;;;;5108588;27;20050;-64
2022/03/14 12:59:57;;;;;;;2.47;1.77;;;;;;;;;;5107713;27;20026;-64
2022/03/14 13:02:25;;;;;;;2.80;1.40;;;;;;;;;;5107815;27;20034;-65
2022/03/14 13:05:00;;;;;;;3.85;1.67;;;;;;;;;;5107716;27;20032;-64
2022/03/14 13:07:27;;;;;;;1.70;1.60;;;;;;;;;;5109938;27;20026;-64
2022/03/14 13:09:56;;;;;;;1.10;0.88;;;;;;;;;;5100287;28;20028;-65
2022/03/14 13:12:21;;;;;;;2.00;1.20;;;;;;;;;;5105073;27;20115;-65
2022/03/14 13:14:47;;;;;;;1.30;1.13;;;;;;;;;;5113610;28;20429;-65
2022/03/14 13:17:20;;;;;;;1.15;1.02;;;;;;;;;;5098898;28;20035;-65
2022/03/14 13:19:46;;;;;;;3.28;1.30;;;;;;;;;;5102055;28;20077;-64
2022/03/14 13:22:12;;;;;;;2.67;1.45;;;;;;;;;;5112996;27;20399;-64
2022/03/14 13:24:38;;;;;;;1.95;1.70;;;;;;;;;;5102691;27;20027;-64
2022/03/14 13:27:03;;;;;;;2.35;1.35;;;;;;;;;;5108940;27;20022;-65
2022/03/14 13:29:33;;;;;;;2.95;1.52;;;;;;;;;;5104202;27;20036;-65
2022/03/14 13:32:00;;;;;;;1.98;1.85;;;;;;;;;;5096958;28;20020;-64
2022/03/14 13:34:28;;;;;;;2.47;1.80;;;;;;;;;;5107938;27;20461;-63
2022/03/14 13:37:04;;;;;;;2.92;2.67;;;;;;;;;;5120653;27;20028;-64
2022/03/14 13:39:29;;;;;;;3.70;2.95;;;;;;;;;;5112003;28;20484;-63
2022/03/14 13:41:58;;;;;;;3.38;3.08;;;;;;;;;;5110374;28;20023;-64
2022/03/14 13:44:24;;;;;;;4.55;3.45;;;;;;;;;;5104383;28;20176;-64
2022/03/14 13:46:53;;;;;;;3.55;2.90;;;;;;;;;;5102738;28;20523;-63
2022/03/14 13:49:21;;;;;;;7.40;3.20;;;;;;;;;;5113597;28;20266;-65
2022/03/14 13:51:46;;;;;;;2.92;2.50;;;;;;;;;;5114247;28;20016;-64
2022/03/14 13:54:12;;;;;;;4.13;2.97;;;;;;;;;;5110987;28;20407;-64
2022/03/14 13:56:39;;;;;;;3.05;2.75;;;;;;;;;;5096149;28;20055;-65
2022/03/14 13:59:04;;;;;;;2.42;2.22;;;;;;;;;;5105977;28;20024;-64
2022/03/14 14:01:46;;;;;;;3.05;2.75;;;;;;;;;;5105018;28;20027;-64
2022/03/14 14:04:12;;;;;;;1.70;1.58;;;;;;;;;;5111179;28;20027;-64
2022/03/14 14:06:44;;;;;;;2.25;1.35;;;;;;;;;;5103643;27;20032;-64
2022/03/14 14:09:24;;;;;;;2.35;1.35;;;;;;;;;;5104948;28;20028;-64
2022/03/14 14:11:56;;;;;;;2.28;1.13;;;;;;;;;;5112330;28;20019;-65
2022/03/14 14:14:25;;;;;;;1.40;1.00;;;;;;;;;;5106626;28;20019;-65
2022/03/14 14:16:50;;;;;;;1.42;0.90;;;;;;;;;;5111038;28;20035;-66
2022/03/14 14:19:15;;;;;;;0.73;0.50;;;;;;;;;;5112409;28;20020;-65
2022/03/14 14:21:53;;;;;;;2.35;1.02;;;;;;;;;;5103182;28;20459;-65
2022/03/14 14:24:22;;;;;;;1.02;0.88;;;;;;;;;;5107379;28;20034;-65
2022/03/14 14:26:47;;;;;;;1.00;0.90;;;;;;;;;;5109072;28;20386;-65
2022/03/14 14:29:32;;;;;;;1.40;0.90;;;;;;;;;;5097767;28;20027;-66
2022/03/14 14:32:17;;;;;;;1.40;0.80;;;;;;;;;;5110761;28;20327;-65
2022/03/14 14:34:42;;;;;;;1.15;0.85;;;;;;;;;;5109844;28;20451;-64
2022/03/14 14:37:08;;;;;;;1.55;0.80;;;;;;;;;;5095326;28;20111;-65
2022/03/14 14:39:36;;;;;;;1.83;1.00;;;;;;;;;;5110672;28;20024;-65